createdAt,value
2023-03-27T00:01:16.876Z,96846.75
2023-03-27T00:03:49.359Z,96851.59
2023-03-27T00:06:19.010Z,96855.09
2023-03-27T00:08:48.108Z,96856.97
2023-03-27T00:11:16.916Z,96862.41
2023-03-27T00:13:49.988Z,96863.69
2023-03-27T00:16:22.042Z,96855.53
2023-03-27T00:18:51.691Z,96858.59
2023-03-27T00:21:20.849Z,96860.09
2023-03-27T00:23:50.729Z,96861.66
2023-03-27T00:26:18.911Z,96868.31
2023-03-27T00:28:47.546Z,96856.41
2023-03-27T00:31:18.051Z,96860.25
2023-03-27T00:33:45.909Z,96862.53
2023-03-27T00:36:15.239Z,96852.56
2023-03-27T00:38:43.544Z,96858.84
2023-03-27T00:41:11.616Z,96859.56
2023-03-27T00:43:42.670Z,96858.59
2023-03-27T00:46:27.778Z,96853.81
2023-03-27T00:48:57.141Z,96857.69
2023-03-27T00:51:28.267Z,96847.53
2023-03-27T00:53:56.934Z,96848.22
2023-03-27T00:56:25.728Z,96844.38
2023-03-27T00:58:56.887Z,96852.78
2023-03-27T01:01:28.151Z,96844.22
2023-03-27T01:04:00.593Z,96850.38
2023-03-27T01:06:31.238Z,96849.31
2023-03-27T01:08:58.993Z,96849.06
2023-03-27T01:11:39.291Z,96848.44
2023-03-27T01:14:14.438Z,96846.03
2023-03-27T01:16:50.499Z,96860.44
2023-03-27T01:19:53.472Z,96859.94
2023-03-27T01:23:06.258Z,96867.97
2023-03-27T01:26:04.823Z,96869.72
2023-03-27T01:28:43.388Z,96875.59
2023-03-27T01:31:27.728Z,96877.41
2023-03-27T01:34:32.663Z,96882.22
2023-03-27T01:37:14.705Z,96893.56
2023-03-27T01:39:56.806Z,96891.09
2023-03-27T01:42:31.615Z,96905.56
2023-03-27T01:45:05.498Z,96908.72
2023-03-27T01:47:43.177Z,96913.25
2023-03-27T01:50:20.074Z,96923.91
2023-03-27T01:52:54.399Z,96934.31
2023-03-27T01:55:29.290Z,96931.81
2023-03-27T01:58:03.241Z,96940.84
2023-03-27T02:00:51.460Z,96950.34
2023-03-27T02:03:26.605Z,96949.91
2023-03-27T02:05:58.452Z,96958.47
2023-03-27T02:08:32.182Z,96961.63
2023-03-27T02:11:01.555Z,96967.59
2023-03-27T02:13:36.177Z,96971.75
2023-03-27T02:16:06.840Z,96985.31
2023-03-27T02:18:38.672Z,96985.97
2023-03-27T02:21:07.165Z,96996.59
2023-03-27T02:23:38.131Z,97001.78
2023-03-27T02:26:10.550Z,97008.59
2023-03-27T02:28:46.517Z,97015.38
2023-03-27T02:31:34.893Z,97025.53
2023-03-27T02:34:33.778Z,97035.25
2023-03-27T02:37:09.370Z,97036.59
2023-03-27T02:39:49.040Z,97049.69
2023-03-27T02:42:24.360Z,97048.78
2023-03-27T02:44:59.215Z,97060.97
2023-03-27T02:47:33.503Z,97069.56
2023-03-27T02:50:05.689Z,97082.06
2023-03-27T02:52:37.620Z,97085.56
2023-03-27T02:55:10.383Z,97087.13
2023-03-27T02:57:40.042Z,97091.38
2023-03-27T03:00:18.589Z,97112.56
2023-03-27T03:02:48.033Z,97114.81
2023-03-27T03:05:22.137Z,97125.31
2023-03-27T03:07:50.486Z,97120.69
2023-03-27T03:10:18.205Z,97132.41
2023-03-27T03:12:47.185Z,97136.25
2023-03-27T03:15:15.202Z,97146.41
2023-03-27T03:17:43.095Z,97154.72
2023-03-27T03:20:12.981Z,97167.91
2023-03-27T03:22:42.162Z,97169.47
2023-03-27T03:25:10.675Z,97187.81
2023-03-27T03:27:38.967Z,97194.13
2023-03-27T03:30:09.693Z,97201.13
2023-03-27T03:32:37.462Z,97200.66
2023-03-27T03:35:05.799Z,97210.91
2023-03-27T03:37:38.773Z,97221.53
2023-03-27T03:40:11.663Z,97223.44
2023-03-27T03:42:45.767Z,97235.06
2023-03-27T03:45:15.438Z,97242.19
2023-03-27T03:47:43.818Z,97245.22
2023-03-27T03:50:12.365Z,97250.50
2023-03-27T03:52:40.797Z,97262.63
2023-03-27T03:55:11.707Z,97266.91
2023-03-27T03:57:39.585Z,97273.44
2023-03-27T04:00:12.178Z,97280.31
2023-03-27T04:02:41.646Z,97284.59
2023-03-27T04:05:10.326Z,97296.13
2023-03-27T04:07:46.103Z,97304.91
2023-03-27T04:10:22.194Z,97315.94
2023-03-27T04:12:53.060Z,97324.75
2023-03-27T04:15:22.977Z,97338.78
2023-03-27T04:17:52.601Z,97340.03
2023-03-27T04:20:20.751Z,97343.69
2023-03-27T04:22:53.140Z,97347.44
2023-03-27T04:25:23.562Z,97354.28
2023-03-27T04:27:52.334Z,97353.09
2023-03-27T04:30:24.499Z,97365.16
2023-03-27T04:32:55.018Z,97374.47
2023-03-27T04:35:23.361Z,97377.44
2023-03-27T04:37:51.307Z,97381.97
2023-03-27T04:40:19.159Z,97390.53
2023-03-27T04:42:46.846Z,97395.94
2023-03-27T04:45:18.232Z,97408.38
2023-03-27T04:47:46.459Z,97405.53
2023-03-27T04:50:16.909Z,97414.78
2023-03-27T04:52:47.891Z,97423.66
2023-03-27T04:55:18.577Z,97426.81
2023-03-27T04:57:47.136Z,97431.13
2023-03-27T05:00:19.196Z,97429.38
2023-03-27T05:02:48.641Z,97445.25
2023-03-27T05:05:19.451Z,97451.78
2023-03-27T05:07:48.885Z,97456.84
2023-03-27T05:10:17.542Z,97472.94
2023-03-27T05:12:51.199Z,97475.63
2023-03-27T05:15:19.611Z,97480.69
2023-03-27T05:17:53.213Z,97486.72
2023-03-27T05:20:23.681Z,97491.97
2023-03-27T05:22:54.632Z,97501.53
2023-03-27T05:25:22.491Z,97526.28
2023-03-27T05:27:52.004Z,97520.25
2023-03-27T05:30:23.656Z,97527.72
2023-03-27T05:32:53.638Z,97536.16
2023-03-27T05:35:25.036Z,97541.69
2023-03-27T05:37:56.142Z,97560.59
2023-03-27T05:40:26.299Z,97565.38
2023-03-27T05:42:55.279Z,97557.75
2023-03-27T05:45:25.145Z,97564.41
2023-03-27T05:47:54.616Z,97573.97
2023-03-27T05:50:26.460Z,97578.69
2023-03-27T05:52:58.322Z,97588.25
2023-03-27T05:55:27.730Z,97596.50
2023-03-27T05:57:56.418Z,97602.84
2023-03-27T06:00:25.826Z,97614.00
2023-03-27T06:02:56.261Z,97618.75
2023-03-27T06:05:27.765Z,97621.28
2023-03-27T06:07:58.496Z,97643.47
2023-03-27T06:10:27.997Z,97637.78
2023-03-27T06:13:03.864Z,97647.94
2023-03-27T06:15:32.974Z,97659.03
2023-03-27T06:18:00.770Z,97660.66
2023-03-27T06:20:31.416Z,97668.78
2023-03-27T06:23:01.994Z,97678.00
2023-03-27T06:25:32.149Z,97679.59
2023-03-27T06:28:00.277Z,97683.88
2023-03-27T06:30:29.371Z,97685.00
2023-03-27T06:32:59.842Z,97697.38
2023-03-27T06:35:30.989Z,97698.81
2023-03-27T06:38:00.060Z,97703.91
2023-03-27T06:40:31.511Z,97722.66
2023-03-27T06:43:02.658Z,97723.63
2023-03-27T06:45:32.267Z,97726.97
2023-03-27T06:48:15.374Z,97733.50
2023-03-27T06:50:49.893Z,97733.81
2023-03-27T06:55:50.851Z,97750.16
2023-03-27T06:58:19.719Z,97756.50
2023-03-27T07:00:48.677Z,97763.06
2023-03-27T07:03:18.018Z,97768.09
2023-03-27T07:05:46.376Z,97773.03
2023-03-27T07:10:59.898Z,97777.44
2023-03-27T07:13:35.881Z,97795.06
2023-03-27T07:16:05.352Z,97798.84
2023-03-27T07:18:33.368Z,97799.66
2023-03-27T07:21:01.394Z,97798.53
2023-03-27T07:23:30.504Z,97802.94
2023-03-27T07:25:59.099Z,97825.53
2023-03-27T07:28:27.211Z,97821.69
2023-03-27T07:30:55.295Z,97832.38
2023-03-27T07:33:23.200Z,97838.06
2023-03-27T07:35:51.133Z,97845.16
2023-03-27T07:38:18.920Z,97853.56
2023-03-27T07:40:49.822Z,97858.78
2023-03-27T07:43:17.500Z,97862.84
2023-03-27T07:45:45.628Z,97874.75
2023-03-27T07:48:16.062Z,97879.69
2023-03-27T07:50:44.895Z,97888.06
2023-03-27T07:53:32.891Z,97892.34
2023-03-27T07:56:02.377Z,97906.91
2023-03-27T07:58:30.267Z,97911.38
2023-03-27T08:01:02.682Z,97920.63
2023-03-27T08:03:31.839Z,97918.44
2023-03-27T08:06:01.132Z,97923.16
2023-03-27T08:08:29.599Z,97933.28
2023-03-27T08:10:58.123Z,97943.09
2023-03-27T08:13:27.822Z,97934.84
2023-03-27T08:16:03.745Z,97929.03
2023-03-27T08:18:31.423Z,97944.34
2023-03-27T08:20:59.531Z,97940.50
2023-03-27T08:23:28.060Z,97948.31
2023-03-27T08:26:00.442Z,97952.34
2023-03-27T08:28:29.883Z,97951.59
2023-03-27T08:31:02.372Z,97954.84
2023-03-27T08:33:30.792Z,97958.50
2023-03-27T08:35:59.249Z,97963.44
2023-03-27T08:38:28.472Z,97970.19
2023-03-27T08:40:59.082Z,97968.31
2023-03-27T08:43:29.891Z,97957.13
2023-03-27T08:46:02.568Z,97967.91
2023-03-27T08:48:36.189Z,97976.75
2023-03-27T08:51:07.147Z,97987.44
2023-03-27T08:53:42.739Z,97994.44
2023-03-27T08:56:15.036Z,97994.66
2023-03-27T08:58:45.433Z,98000.41
2023-03-27T09:01:20.141Z,98014.19
2023-03-27T09:03:57.138Z,98022.94
2023-03-27T09:06:27.766Z,98024.44
2023-03-27T09:09:06.440Z,98025.78
2023-03-27T09:11:46.026Z,98029.97
2023-03-27T09:14:27.793Z,98034.47
2023-03-27T09:16:57.981Z,98038.97
2023-03-27T09:19:35.273Z,98051.78
2023-03-27T09:22:07.917Z,98056.69
2023-03-27T09:24:41.799Z,98060.28
2023-03-27T09:27:17.699Z,98060.72
2023-03-27T09:30:05.853Z,98065.84
2023-03-27T09:32:34.936Z,98065.00
2023-03-27T09:35:02.910Z,98067.53
2023-03-27T09:37:30.931Z,98077.47
2023-03-27T09:40:01.412Z,98074.78
2023-03-27T09:42:32.927Z,98081.81
2023-03-27T09:45:05.426Z,98080.56
2023-03-27T09:47:38.194Z,98081.78
2023-03-27T09:50:25.591Z,98082.97
2023-03-27T09:53:08.538Z,98088.75
2023-03-27T09:55:45.227Z,98087.25
2023-03-27T09:58:20.844Z,98073.81
2023-03-27T10:00:50.028Z,98096.44
2023-03-27T10:03:21.783Z,98103.66
2023-03-27T10:06:05.728Z,98103.03
2023-03-27T10:08:39.126Z,98109.66
2023-03-27T10:11:09.955Z,98098.72
2023-03-27T10:13:37.842Z,98103.94
2023-03-27T10:16:07.904Z,98111.69
2023-03-27T10:18:43.383Z,98101.03
2023-03-27T10:21:17.699Z,98111.13
2023-03-27T10:23:49.401Z,98112.44
2023-03-27T10:26:21.216Z,98113.88
2023-03-27T10:28:51.501Z,98106.44
2023-03-27T10:31:34.661Z,98111.66
2023-03-27T10:34:04.711Z,98121.59
2023-03-27T10:36:38.192Z,98112.28
2023-03-27T10:39:12.910Z,98119.56
2023-03-27T10:41:42.142Z,98138.66
2023-03-27T10:44:17.967Z,98134.75
2023-03-27T10:46:47.615Z,98128.72
2023-03-27T10:49:28.792Z,98135.94
2023-03-27T10:52:09.093Z,98148.44
2023-03-27T10:54:45.879Z,98158.94
2023-03-27T10:57:16.881Z,98149.16
2023-03-27T10:59:50.715Z,98154.47
2023-03-27T11:02:24.058Z,98153.59
2023-03-27T11:04:56.853Z,98156.06
2023-03-27T11:07:33.700Z,98148.50
2023-03-27T11:10:07.091Z,98160.47
2023-03-27T11:12:37.951Z,98154.22
2023-03-27T11:15:14.671Z,98160.50
2023-03-27T11:17:50.596Z,98163.06
2023-03-27T11:20:25.737Z,98171.44
2023-03-27T11:22:58.220Z,98189.91
2023-03-27T11:25:34.491Z,98202.50
2023-03-27T11:28:09.626Z,98199.94
2023-03-27T11:30:44.214Z,98192.78
2023-03-27T11:33:26.325Z,98193.84
2023-03-27T11:35:58.137Z,98196.78
2023-03-27T11:38:31.567Z,98191.81
2023-03-27T11:40:59.741Z,98188.53
2023-03-27T11:43:27.767Z,98181.81
2023-03-27T11:46:14.372Z,98181.78
2023-03-27T11:49:05.511Z,98186.25
2023-03-27T11:51:48.779Z,98182.84
2023-03-27T11:54:30.668Z,98185.56
2023-03-27T11:57:02.714Z,98209.88
2023-03-27T11:59:42.826Z,98204.66
2023-03-27T12:02:40.821Z,98196.97
2023-03-27T12:05:20.187Z,98197.50
2023-03-27T12:07:57.094Z,98195.72
2023-03-27T12:10:31.781Z,98198.09
2023-03-27T12:13:41.187Z,98214.69
2023-03-27T12:16:40.719Z,98230.59
2023-03-27T12:19:29.712Z,98218.13
2023-03-27T12:22:22.608Z,98210.03
2023-03-27T12:25:06.141Z,98218.25
2023-03-27T12:27:47.437Z,98220.41
2023-03-27T12:30:27.961Z,98221.91
2023-03-27T12:33:20.600Z,98229.63
2023-03-27T12:35:51.512Z,98240.78
2023-03-27T12:38:28.113Z,98239.22
2023-03-27T12:41:05.788Z,98246.53
2023-03-27T12:43:39.751Z,98243.69
2023-03-27T12:46:10.984Z,98233.16
2023-03-27T12:48:56.491Z,98251.97
2023-03-27T12:51:38.808Z,98242.44
2023-03-27T12:54:25.380Z,98256.00
2023-03-27T12:57:05.051Z,98253.56
2023-03-27T12:59:36.267Z,98264.19
2023-03-27T13:02:36.716Z,98271.91
2023-03-27T13:05:36.692Z,98294.34
2023-03-27T13:08:21.896Z,98311.38
2023-03-27T13:10:59.032Z,98308.47
2023-03-27T13:14:04.171Z,98312.88
2023-03-27T13:16:50.262Z,98319.69
2023-03-27T13:19:32.395Z,98325.41
2023-03-27T13:22:15.713Z,98323.97
2023-03-27T13:25:10.612Z,98320.59
2023-03-27T13:27:52.760Z,98307.75
2023-03-27T13:30:44.294Z,98309.00
2023-03-27T13:33:17.393Z,98304.16
2023-03-27T13:36:04.596Z,98295.19
2023-03-27T13:38:48.509Z,98285.97
2023-03-27T13:41:56.195Z,98288.88
2023-03-27T13:44:34.148Z,98282.59
2023-03-27T13:47:11.672Z,98292.53
2023-03-27T13:49:56.164Z,98293.91
2023-03-27T13:53:04.015Z,98293.31
2023-03-27T13:55:52.355Z,98286.56
2023-03-27T13:58:41.056Z,98288.19
2023-03-27T14:01:30.572Z,98291.53
2023-03-27T14:04:29.765Z,98281.66
2023-03-27T14:07:45.455Z,98277.50
2023-03-27T14:10:27.016Z,98273.03
2023-03-27T14:13:08.239Z,98274.31
2023-03-27T14:16:02.544Z,98297.84
2023-03-27T14:19:02.363Z,98309.59
2023-03-27T14:21:38.723Z,98313.88
2023-03-27T14:24:11.747Z,98293.78
2023-03-27T14:26:45.372Z,98292.88
2023-03-27T14:29:15.420Z,98290.75
2023-03-27T14:31:44.603Z,98297.88
2023-03-27T14:34:22.348Z,98286.19
2023-03-27T14:36:52.028Z,98292.78
2023-03-27T14:39:22.154Z,98288.03
2023-03-27T14:41:53.864Z,98293.47
2023-03-27T14:44:21.611Z,98293.31
2023-03-27T14:46:50.854Z,98294.56
2023-03-27T14:49:25.293Z,98296.66
2023-03-27T14:52:00.190Z,98288.97
2023-03-27T14:54:29.495Z,98282.28
2023-03-27T14:57:00.435Z,98282.59
2023-03-27T14:59:33.753Z,98289.25
2023-03-27T15:02:05.417Z,98279.03
2023-03-27T15:04:38.257Z,98281.94
2023-03-27T15:07:14.310Z,98284.53
2023-03-27T15:09:42.827Z,98272.06
2023-03-27T15:12:11.391Z,98271.59
2023-03-27T15:14:40.365Z,98276.69
2023-03-27T15:17:14.448Z,98275.59
2023-03-27T15:19:48.425Z,98282.16
2023-03-27T15:22:23.431Z,98276.41
2023-03-27T15:24:55.812Z,98278.63
2023-03-27T15:27:28.666Z,98287.25
2023-03-27T15:30:01.499Z,98283.72
2023-03-27T15:32:33.905Z,98283.59
2023-03-27T15:35:05.268Z,98302.06
2023-03-27T15:37:34.948Z,98296.34
2023-03-27T15:40:31.349Z,98301.75
2023-03-27T15:43:04.377Z,98303.22
2023-03-27T15:45:40.811Z,98290.59
2023-03-27T15:48:19.858Z,98292.53
2023-03-27T15:50:56.898Z,98303.69
2023-03-27T15:53:33.041Z,98301.13
2023-03-27T15:56:03.198Z,98307.19
2023-03-27T15:58:41.059Z,98320.28
2023-03-27T16:01:18.412Z,98333.69
2023-03-27T16:03:48.431Z,98343.56
2023-03-27T16:06:26.701Z,98355.25
2023-03-27T16:08:55.257Z,98338.28
2023-03-27T16:11:41.609Z,98335.69
2023-03-27T16:14:22.157Z,98327.84
2023-03-27T16:16:54.792Z,98335.97
2023-03-27T16:19:22.619Z,98329.94
2023-03-27T16:21:58.240Z,98330.06
2023-03-27T16:24:25.955Z,98325.97
2023-03-27T16:26:54.905Z,98326.13
2023-03-27T16:29:22.801Z,98323.25
2023-03-27T16:31:50.495Z,98327.91
2023-03-27T16:34:22.129Z,98330.78
2023-03-27T16:36:51.422Z,98331.75
2023-03-27T16:39:20.589Z,98335.13
2023-03-27T16:41:48.278Z,98335.94
2023-03-27T16:44:16.284Z,98334.63
2023-03-27T16:46:44.091Z,98328.28
2023-03-27T16:49:13.491Z,98332.25
2023-03-27T16:51:41.350Z,98330.81
2023-03-27T16:54:09.064Z,98328.56
2023-03-27T16:56:39.081Z,98334.31
2023-03-27T16:59:06.782Z,98335.28
2023-03-27T17:01:34.634Z,98338.81
2023-03-27T17:04:02.429Z,98340.72
2023-03-27T17:06:30.330Z,98350.88
2023-03-27T17:08:58.008Z,98357.53
2023-03-27T17:11:25.838Z,98360.75
2023-03-27T17:13:55.044Z,98369.13
2023-03-27T17:16:22.901Z,98369.31
2023-03-27T17:18:51.761Z,98376.59
2023-03-27T17:21:19.738Z,98380.91
2023-03-27T17:23:48.651Z,98391.41
2023-03-27T17:26:23.977Z,98384.81
2023-03-27T17:28:51.655Z,98393.84
2023-03-27T17:31:20.899Z,98391.13
2023-03-27T17:33:48.955Z,98403.13
2023-03-27T17:36:26.882Z,98409.66
2023-03-27T17:38:57.826Z,98401.28
2023-03-27T17:41:27.101Z,98411.47
2023-03-27T17:43:54.772Z,98414.94
2023-03-27T17:46:24.080Z,98421.34
2023-03-27T17:48:51.792Z,98420.34
2023-03-27T17:51:19.442Z,98423.34
2023-03-27T17:53:47.059Z,98427.97
2023-03-27T17:56:14.709Z,98434.59
2023-03-27T17:58:43.792Z,98441.28
2023-03-27T18:01:16.431Z,98445.53
2023-03-27T18:03:46.203Z,98441.84
2023-03-27T18:06:14.456Z,98444.53
2023-03-27T18:08:42.232Z,98450.66
2023-03-27T18:11:11.406Z,98452.75
2023-03-27T18:13:40.153Z,98454.88
2023-03-27T18:16:10.744Z,98458.06
2023-03-27T18:18:40.183Z,98464.09
2023-03-27T18:21:10.035Z,98467.03
2023-03-27T18:23:45.949Z,98470.00
2023-03-27T18:26:15.262Z,98480.72
2023-03-27T18:28:43.724Z,98502.56
2023-03-27T18:31:13.730Z,98513.91
2023-03-27T18:33:41.992Z,98545.09
2023-03-27T18:36:12.331Z,98541.03
2023-03-27T18:38:42.303Z,98551.50
2023-03-27T18:41:11.500Z,98548.47
2023-03-27T18:43:39.807Z,98542.22
2023-03-27T18:46:08.842Z,98534.00
2023-03-27T18:48:36.972Z,98533.59
2023-03-27T18:51:06.492Z,98528.41
2023-03-27T18:53:35.939Z,98526.88
2023-03-27T18:56:03.781Z,98536.28
2023-03-27T18:58:32.084Z,98542.91
2023-03-27T19:01:00.034Z,98545.09
2023-03-27T19:03:30.340Z,98557.09
2023-03-27T19:06:01.831Z,98540.72
2023-03-27T19:08:29.540Z,98552.69
2023-03-27T19:10:58.738Z,98562.56
2023-03-27T19:13:26.967Z,98560.31
2023-03-27T19:15:55.491Z,98565.72
2023-03-27T19:18:25.450Z,98559.69
2023-03-27T19:20:53.253Z,98564.69
2023-03-27T19:23:20.886Z,98563.06
2023-03-27T19:25:49.445Z,98567.09
2023-03-27T19:28:18.645Z,98570.50
2023-03-27T19:30:46.672Z,98577.66
2023-03-27T19:33:14.472Z,98573.72
2023-03-27T19:35:42.181Z,98573.56
2023-03-27T19:38:09.998Z,98583.78
2023-03-27T19:40:37.720Z,98582.25
2023-03-27T19:43:05.589Z,98590.38
2023-03-27T19:45:34.842Z,98592.25
2023-03-27T19:48:03.146Z,98598.53
2023-03-27T19:50:31.222Z,98589.34
2023-03-27T19:53:08.158Z,98586.56
2023-03-27T19:55:36.933Z,98597.66
2023-03-27T19:58:04.773Z,98590.63
2023-03-27T20:00:34.994Z,98591.66
2023-03-27T20:03:03.048Z,98602.25
2023-03-27T20:05:30.964Z,98595.81
2023-03-27T20:07:58.775Z,98598.41
2023-03-27T20:10:27.170Z,98603.81
2023-03-27T20:12:54.938Z,98598.97
2023-03-27T20:15:23.253Z,98613.66
2023-03-27T20:17:52.557Z,98608.97
2023-03-27T20:20:20.468Z,98612.72
2023-03-27T20:25:19.240Z,98620.31
2023-03-27T20:27:47.035Z,98627.38
2023-03-27T20:30:15.087Z,98612.44
2023-03-27T20:32:42.982Z,98623.88
2023-03-27T20:35:23.075Z,98618.41
2023-03-27T20:37:56.426Z,98614.72
2023-03-27T20:40:24.763Z,98618.09
2023-03-27T20:43:03.726Z,98623.50
2023-03-27T20:45:31.886Z,98619.97
2023-03-27T20:48:04.302Z,98629.84
2023-03-27T20:50:36.324Z,98632.47
2023-03-27T20:53:04.854Z,98648.09
2023-03-27T20:55:39.391Z,98648.66
2023-03-27T20:58:09.717Z,98649.03
2023-03-27T21:00:38.790Z,98647.19
2023-03-27T21:03:09.596Z,98647.97
2023-03-27T21:05:41.229Z,98646.59
2023-03-27T21:08:09.255Z,98638.69
2023-03-27T21:10:37.181Z,98646.69
2023-03-27T21:13:04.945Z,98648.94
2023-03-27T21:15:33.439Z,98642.56
2023-03-27T21:18:01.730Z,98646.56
2023-03-27T21:20:29.513Z,98644.16
2023-03-27T21:22:58.576Z,98647.66
2023-03-27T21:25:26.333Z,98647.38
2023-03-27T21:27:54.226Z,98643.66
2023-03-27T21:30:22.141Z,98641.44
2023-03-27T21:32:50.763Z,98637.84
2023-03-27T21:35:18.712Z,98640.22
2023-03-27T21:37:46.393Z,98648.91
2023-03-27T21:40:16.122Z,98644.34
2023-03-27T21:42:43.954Z,98642.34
2023-03-27T21:45:11.803Z,98653.38
2023-03-27T21:47:47.167Z,98651.25
2023-03-27T21:50:15.968Z,98666.19
2023-03-27T21:52:43.811Z,98670.38
2023-03-27T21:55:11.684Z,98680.63
2023-03-27T21:57:40.736Z,98683.41
2023-03-27T22:00:09.793Z,98669.50
2023-03-27T22:02:37.557Z,98670.38
2023-03-27T22:05:05.857Z,98682.44
2023-03-27T22:07:34.007Z,98678.16
2023-03-27T22:10:02.105Z,98675.97
2023-03-27T22:12:29.835Z,98674.34
2023-03-27T22:14:58.857Z,98667.81
2023-03-27T22:17:26.706Z,98662.34
2023-03-27T22:19:54.626Z,98675.19
2023-03-27T22:22:22.320Z,98674.66
2023-03-27T22:24:50.075Z,98676.00
2023-03-27T22:27:17.830Z,98669.56
2023-03-27T22:29:45.937Z,98687.69
2023-03-27T22:32:15.023Z,98681.25
2023-03-27T22:34:42.725Z,98686.63
2023-03-27T22:37:10.472Z,98695.81
2023-03-27T22:39:38.521Z,98687.19
2023-03-27T22:42:06.918Z,98697.50
2023-03-27T22:44:34.638Z,98701.22
2023-03-27T22:47:02.392Z,98703.66
2023-03-27T22:49:31.647Z,98702.91
2023-03-27T22:51:59.390Z,98703.44
2023-03-27T22:54:27.100Z,98704.00
2023-03-27T22:56:55.868Z,98701.34
2023-03-27T22:59:23.639Z,98713.16
2023-03-27T23:01:51.397Z,98707.47
2023-03-27T23:04:19.159Z,98714.53
2023-03-27T23:06:48.669Z,98716.44
2023-03-27T23:09:16.718Z,98721.28
2023-03-27T23:11:45.365Z,98723.94
2023-03-27T23:14:13.100Z,98722.09
2023-03-27T23:16:42.345Z,98722.41
2023-03-27T23:19:10.118Z,98723.22
2023-03-27T23:21:37.886Z,98724.56
2023-03-27T23:24:07.722Z,98715.72
2023-03-27T23:26:35.544Z,98730.25
2023-03-27T23:29:03.245Z,98728.97
2023-03-27T23:31:30.920Z,98729.47
2023-03-27T23:33:58.578Z,98734.91
2023-03-27T23:36:26.376Z,98739.22
2023-03-27T23:38:54.462Z,98737.63
2023-03-27T23:41:23.793Z,98738.69
2023-03-27T23:43:51.639Z,98737.88
2023-03-27T23:46:19.398Z,98747.31
2023-03-27T23:48:47.210Z,98752.72
2023-03-27T23:51:17.059Z,98743.28
2023-03-27T23:53:45.310Z,98753.56
2023-03-27T23:56:13.416Z,98750.09
2023-03-27T23:58:42.497Z,98747.41
